createdAt,value
2022-10-29T00:02:41.596Z,38.09
2022-10-29T00:05:44.569Z,37.95
2022-10-29T00:08:47.569Z,38.11
2022-10-29T00:11:51.945Z,37.93
2022-10-29T00:14:55.062Z,38.11
2022-10-29T00:17:58.550Z,37.91
2022-10-29T00:21:02.918Z,37.70
2022-10-29T00:24:06.807Z,38.10
2022-10-29T00:27:11.225Z,37.76
2022-10-29T00:30:15.288Z,37.73
2022-10-29T00:36:24.763Z,38.13
2022-10-29T00:39:29.555Z,37.97
2022-10-29T00:42:33.985Z,37.82
2022-10-29T00:45:37.031Z,38.02
2022-10-29T00:48:45.075Z,37.70
2022-10-29T00:51:49.471Z,37.96
2022-10-29T00:54:54.690Z,38.18
2022-10-29T00:58:00.911Z,37.94
2022-10-29T01:01:04.239Z,38.00
2022-10-29T01:04:07.982Z,38.29
2022-10-29T01:07:11.818Z,37.81
2022-10-29T01:10:16.331Z,37.85
2022-10-29T01:13:43.515Z,37.76
2022-10-29T01:16:50.633Z,37.88
2022-10-29T01:20:33.409Z,37.59
2022-10-29T01:24:04.182Z,37.86
2022-10-29T01:27:52.930Z,37.67
2022-10-29T01:31:20.411Z,37.93
2022-10-29T01:34:30.053Z,37.98
2022-10-29T01:37:37.430Z,37.75
2022-10-29T01:40:51.093Z,38.05
2022-10-29T01:43:59.080Z,38.18
2022-10-29T01:47:05.447Z,37.82
2022-10-29T01:50:12.337Z,38.04
2022-10-29T01:53:15.662Z,38.13
2022-10-29T01:56:19.246Z,38.00
2022-10-29T01:59:35.425Z,38.00
2022-10-29T02:02:52.645Z,37.83
2022-10-29T02:06:01.799Z,37.99
2022-10-29T02:09:14.220Z,38.11
2022-10-29T02:12:22.676Z,38.12
2022-10-29T02:15:30.632Z,38.27
2022-10-29T02:21:44.318Z,38.12
2022-10-29T02:27:50.547Z,38.09
2022-10-29T02:30:53.503Z,37.99
2022-10-29T02:33:57.915Z,37.98
2022-10-29T02:37:00.942Z,37.78
2022-10-29T02:40:04.145Z,37.86
2022-10-29T02:43:07.130Z,37.66
2022-10-29T02:46:14.922Z,37.96
2022-10-29T02:49:19.328Z,37.77
2022-10-29T02:52:22.645Z,37.55
2022-10-29T02:55:25.784Z,37.67
2022-10-29T02:58:28.833Z,37.95
2022-10-29T03:01:31.971Z,37.68
2022-10-29T03:04:36.502Z,37.92
2022-10-29T03:07:40.383Z,37.66
2022-10-29T03:10:43.775Z,37.71
2022-10-29T03:13:46.784Z,37.63
2022-10-29T03:16:49.779Z,37.65
2022-10-29T03:19:54.216Z,37.73
2022-10-29T03:22:57.297Z,37.61
2022-10-29T03:26:00.337Z,37.52
2022-10-29T03:29:03.614Z,37.56
2022-10-29T03:32:07.378Z,37.60
2022-10-29T03:35:13.719Z,37.52
2022-10-29T03:38:16.738Z,37.39
2022-10-29T03:41:19.787Z,37.69
2022-10-29T03:44:22.846Z,37.46
2022-10-29T03:47:26.117Z,37.49
2022-10-29T03:50:30.553Z,37.57
2022-10-29T03:53:34.706Z,37.74
2022-10-29T03:56:37.720Z,37.61
2022-10-29T03:59:40.773Z,37.79
2022-10-29T04:02:43.956Z,37.74
2022-10-29T04:05:48.399Z,37.72
2022-10-29T04:08:51.518Z,37.54
2022-10-29T04:11:54.578Z,37.49
2022-10-29T04:14:57.689Z,37.44
2022-10-29T04:18:00.682Z,37.39
2022-10-29T04:22:40.353Z,37.35
2022-10-29T04:31:15.244Z,37.95
2022-10-29T04:34:18.230Z,37.70
2022-10-29T04:37:22.624Z,37.43
2022-10-29T04:40:26.211Z,37.93
2022-10-29T04:43:30.120Z,37.71
2022-10-29T04:46:33.106Z,37.68
2022-10-29T04:49:36.109Z,37.85
2022-10-29T04:52:40.925Z,37.52
2022-10-29T04:55:44.471Z,37.84
2022-10-29T04:58:47.536Z,37.89
2022-10-29T05:01:50.492Z,37.29
2022-10-29T05:04:53.463Z,36.08
2022-10-29T05:08:01.574Z,35.92
2022-10-29T05:11:05.320Z,35.72
2022-10-29T05:14:08.310Z,35.42
2022-10-29T05:17:11.283Z,35.45
2022-10-29T05:20:14.271Z,35.42
2022-10-29T05:23:18.661Z,35.31
2022-10-29T05:26:21.689Z,35.32
2022-10-29T05:29:24.782Z,35.05
2022-10-29T05:32:29.867Z,35.12
2022-10-29T05:35:32.915Z,35.16
2022-10-29T05:38:37.473Z,34.97
2022-10-29T05:41:40.817Z,35.13
2022-10-29T05:44:43.867Z,35.03
2022-10-29T05:47:46.927Z,35.26
2022-10-29T05:50:50.105Z,35.03
2022-10-29T05:53:54.567Z,35.24
2022-10-29T06:00:18.753Z,35.01
2022-10-29T06:03:23.736Z,34.92
2022-10-29T06:06:27.263Z,31.54
2022-10-29T06:09:31.750Z,30.93
2022-10-29T06:13:22.033Z,32.82
2022-10-29T06:16:26.607Z,34.07
2022-10-29T06:19:29.809Z,34.34
2022-10-29T06:22:33.248Z,34.10
2022-10-29T06:25:37.814Z,34.01
2022-10-29T06:28:48.108Z,34.40
2022-10-29T06:32:04.369Z,35.26
2022-10-29T06:35:11.274Z,34.50
2022-10-29T06:38:17.233Z,34.41
2022-10-29T06:41:33.576Z,34.05
2022-10-29T06:44:39.984Z,34.68
2022-10-29T06:47:44.288Z,34.42
2022-10-29T06:50:50.059Z,34.04
2022-10-29T06:53:54.217Z,33.55
2022-10-29T06:57:00.183Z,33.32
2022-10-29T07:00:07.530Z,33.59
2022-10-29T07:03:14.166Z,33.58
2022-10-29T07:06:17.193Z,33.19
2022-10-29T07:09:20.352Z,33.16
2022-10-29T07:12:24.977Z,32.95
2022-10-29T07:15:30.650Z,32.96
2022-10-29T07:18:34.144Z,33.49
2022-10-29T07:21:37.156Z,33.39
2022-10-29T07:24:40.362Z,33.62
2022-10-29T07:27:47.154Z,33.42
2022-10-29T07:30:50.924Z,33.25
2022-10-29T07:33:54.105Z,32.98
2022-10-29T07:36:57.173Z,32.84
2022-10-29T07:40:00.349Z,33.12
2022-10-29T07:43:05.245Z,32.96
2022-10-29T07:46:09.140Z,32.87
2022-10-29T07:49:12.397Z,33.07
2022-10-29T07:52:19.340Z,33.48
2022-10-29T07:55:22.799Z,33.46
2022-10-29T07:58:27.971Z,33.32
2022-10-29T08:01:42.555Z,33.18
2022-10-29T08:05:00.579Z,33.33
2022-10-29T08:08:03.751Z,33.34
2022-10-29T08:11:07.565Z,32.90
2022-10-29T08:14:12.916Z,33.43
2022-10-29T08:17:24.422Z,33.26
2022-10-29T08:20:29.735Z,33.36
2022-10-29T08:23:32.850Z,32.99
2022-10-29T08:26:35.925Z,33.35
2022-10-29T08:29:40.426Z,33.42
2022-10-29T08:32:47.842Z,33.19
2022-10-29T08:35:50.946Z,33.27
2022-10-29T08:38:56.840Z,33.11
2022-10-29T08:42:12.184Z,33.56
2022-10-29T08:45:26.598Z,33.61
2022-10-29T08:48:38.159Z,33.32
2022-10-29T08:51:43.985Z,33.41
2022-10-29T08:54:57.051Z,33.81
2022-10-29T08:58:17.652Z,33.72
2022-10-29T09:01:26.688Z,34.06
2022-10-29T09:04:35.552Z,33.92
2022-10-29T09:07:58.423Z,34.10
2022-10-29T09:11:19.754Z,34.21
2022-10-29T09:14:39.718Z,35.18
2022-10-29T09:17:56.340Z,35.30
2022-10-29T09:21:11.036Z,35.90
2022-10-29T09:24:18.429Z,35.52
2022-10-29T09:27:37.499Z,35.60
2022-10-29T09:31:00.719Z,36.21
2022-10-29T09:34:11.696Z,36.19
2022-10-29T09:37:19.006Z,36.14
2022-10-29T09:40:33.623Z,36.59
2022-10-29T09:43:44.478Z,36.02
2022-10-29T09:46:59.756Z,36.40
2022-10-29T09:50:15.366Z,36.04
2022-10-29T09:53:19.295Z,36.71
2022-10-29T09:56:22.499Z,36.96
2022-10-29T09:59:32.574Z,36.72
2022-10-29T10:02:38.555Z,36.95
2022-10-29T10:06:02.099Z,36.83
2022-10-29T10:09:06.787Z,37.32
2022-10-29T10:12:09.842Z,37.93
2022-10-29T10:15:24.183Z,37.59
2022-10-29T10:18:29.311Z,37.78
2022-10-29T10:21:34.883Z,38.15
2022-10-29T10:24:41.193Z,38.30
2022-10-29T10:27:44.264Z,37.97
2022-10-29T10:30:47.412Z,38.32
2022-10-29T10:33:53.570Z,38.50
2022-10-29T10:37:04.349Z,38.33
2022-10-29T10:40:09.046Z,38.51
2022-10-29T10:43:22.971Z,38.52
2022-10-29T10:46:30.996Z,38.69
2022-10-29T10:49:36.859Z,39.05
2022-10-29T10:52:42.300Z,38.73
2022-10-29T10:55:49.263Z,38.97
2022-10-29T10:58:59.717Z,38.50
2022-10-29T11:02:05.397Z,38.70
2022-10-29T11:05:17.111Z,38.65
2022-10-29T11:08:27.557Z,38.55
2022-10-29T11:11:33.592Z,38.34
2022-10-29T11:14:43.137Z,38.17
2022-10-29T11:17:54.284Z,38.34
2022-10-29T11:21:06.258Z,38.44
2022-10-29T11:24:18.068Z,38.26
2022-10-29T11:27:29.400Z,38.24
2022-10-29T11:30:39.616Z,38.63
2022-10-29T11:33:52.083Z,38.74
2022-10-29T11:37:02.068Z,38.75
2022-10-29T11:40:14.861Z,38.42
2022-10-29T11:43:20.977Z,38.12
2022-10-29T11:46:40.861Z,38.08
2022-10-29T11:50:07.594Z,38.11
2022-10-29T11:53:26.950Z,37.53
2022-10-29T11:56:49.818Z,37.65
2022-10-29T12:00:05.046Z,37.35
2022-10-29T12:03:29.635Z,37.62
2022-10-29T12:06:41.443Z,37.19
2022-10-29T12:10:07.317Z,37.81
2022-10-29T12:13:22.260Z,38.04
2022-10-29T12:16:36.948Z,38.23
2022-10-29T12:19:49.031Z,38.28
2022-10-29T12:23:02.523Z,38.29
2022-10-29T12:26:16.261Z,38.38
2022-10-29T12:29:28.540Z,38.75
2022-10-29T12:32:39.062Z,38.56
2022-10-29T12:35:46.447Z,38.90
2022-10-29T12:38:54.033Z,38.95
2022-10-29T12:42:02.765Z,38.86
2022-10-29T12:45:23.341Z,39.20
2022-10-29T12:48:39.366Z,39.56
2022-10-29T12:51:52.286Z,39.53
2022-10-29T12:54:56.975Z,39.23
2022-10-29T12:58:00.098Z,39.86
2022-10-29T13:01:04.602Z,39.89
2022-10-29T13:04:23.960Z,39.83
2022-10-29T13:07:27.030Z,39.52
2022-10-29T13:10:50.643Z,39.95
2022-10-29T13:14:00.557Z,40.32
2022-10-29T13:17:06.936Z,39.83
2022-10-29T13:20:22.602Z,40.53
2022-10-29T13:23:37.519Z,40.70
2022-10-29T13:27:02.294Z,40.19
2022-10-29T13:30:29.810Z,40.79
2022-10-29T13:33:52.486Z,40.77
2022-10-29T13:37:15.512Z,40.97
2022-10-29T13:40:41.335Z,40.81
2022-10-29T13:43:55.047Z,41.24
2022-10-29T13:47:01.701Z,41.42
2022-10-29T13:50:08.358Z,40.91
2022-10-29T13:53:15.042Z,41.70
2022-10-29T13:56:24.061Z,41.51
2022-10-29T13:59:36.229Z,40.81
2022-10-29T14:02:55.790Z,41.19
2022-10-29T14:06:05.019Z,40.39
2022-10-29T14:09:16.662Z,40.71
2022-10-29T14:12:23.930Z,40.46
2022-10-29T14:15:27.033Z,40.56
2022-10-29T14:18:32.945Z,40.45
2022-10-29T14:21:40.549Z,40.73
2022-10-29T14:24:43.664Z,40.39
2022-10-29T14:27:46.696Z,40.71
2022-10-29T14:31:00.400Z,40.74
2022-10-29T14:34:03.416Z,40.30
2022-10-29T14:37:15.136Z,40.77
2022-10-29T14:40:21.318Z,40.64
2022-10-29T14:43:28.034Z,40.78
2022-10-29T14:46:32.610Z,40.88
2022-10-29T14:49:40.393Z,40.73
2022-10-29T14:52:52.493Z,40.73
2022-10-29T14:55:57.252Z,40.70
2022-10-29T14:59:01.905Z,40.34
2022-10-29T15:02:36.346Z,40.33
2022-10-29T15:05:36.666Z,40.16
2022-10-29T15:08:42.589Z,40.60
2022-10-29T15:11:59.602Z,40.28
2022-10-29T15:15:10.059Z,40.15
2022-10-29T15:18:20.651Z,39.75
2022-10-29T15:21:25.208Z,39.42
2022-10-29T15:24:29.664Z,39.23
2022-10-29T15:27:32.908Z,39.34
2022-10-29T15:30:37.903Z,39.35
2022-10-29T15:33:40.931Z,39.28
2022-10-29T15:36:48.083Z,39.81
2022-10-29T15:40:05.179Z,39.96
2022-10-29T15:43:29.578Z,40.02
2022-10-29T15:46:44.804Z,40.05
2022-10-29T15:49:47.775Z,40.11
2022-10-29T15:52:55.224Z,39.92
2022-10-29T15:56:01.038Z,39.97
2022-10-29T15:59:04.194Z,40.02
2022-10-29T16:02:12.641Z,39.92
2022-10-29T16:05:16.802Z,40.46
2022-10-29T16:08:26.301Z,40.10
2022-10-29T16:11:30.735Z,40.20
2022-10-29T16:14:33.718Z,40.33
2022-10-29T16:17:36.684Z,40.19
2022-10-29T16:20:39.678Z,40.03
2022-10-29T16:23:42.962Z,39.91
2022-10-29T16:26:47.399Z,40.36
2022-10-29T16:29:51.768Z,39.85
2022-10-29T16:32:55.860Z,40.53
2022-10-29T16:35:59.083Z,40.47
2022-10-29T16:39:02.448Z,39.79
2022-10-29T16:42:07.299Z,40.50
2022-10-29T16:45:14.799Z,40.42
2022-10-29T16:48:17.816Z,40.01
2022-10-29T16:51:20.811Z,40.21
2022-10-29T16:54:23.790Z,39.80
2022-10-29T16:57:29.512Z,39.57
2022-10-29T17:00:33.204Z,39.29
2022-10-29T17:03:36.247Z,39.59
2022-10-29T17:06:39.259Z,39.80
2022-10-29T17:09:42.295Z,39.51
2022-10-29T17:12:46.716Z,39.15
2022-10-29T17:15:49.696Z,39.40
2022-10-29T17:18:52.659Z,39.91
2022-10-29T17:21:58.697Z,40.17
2022-10-29T17:25:01.680Z,39.71
2022-10-29T17:28:06.070Z,40.33
2022-10-29T17:31:10.197Z,40.07
2022-10-29T17:34:13.262Z,40.13
2022-10-29T17:37:16.254Z,40.10
2022-10-29T17:40:19.404Z,40.59
2022-10-29T17:43:23.832Z,39.96
2022-10-29T17:46:26.886Z,40.30
2022-10-29T17:49:29.984Z,40.25
2022-10-29T17:52:33.017Z,40.34
2022-10-29T17:55:36.098Z,40.08
2022-10-29T17:58:40.780Z,40.57
2022-10-29T18:01:45.432Z,40.47
2022-10-29T18:04:48.596Z,40.14
2022-10-29T18:07:51.649Z,40.64
2022-10-29T18:10:57.636Z,40.32
2022-10-29T18:14:02.151Z,40.51
2022-10-29T18:17:05.273Z,40.13
2022-10-29T18:20:09.196Z,40.30
2022-10-29T18:23:12.165Z,40.67
2022-10-29T18:26:23.996Z,40.86
2022-10-29T18:29:28.449Z,40.65
2022-10-29T18:32:31.541Z,40.81
2022-10-29T18:35:34.594Z,40.84
2022-10-29T18:38:37.589Z,40.79
2022-10-29T18:41:40.852Z,41.13
2022-10-29T18:44:45.283Z,41.11
2022-10-29T18:47:48.531Z,41.82
2022-10-29T18:50:51.867Z,41.79
2022-10-29T18:53:57.884Z,40.54
2022-10-29T18:57:01.090Z,40.38
2022-10-29T19:00:06.285Z,39.89
2022-10-29T19:03:10.017Z,40.20
2022-10-29T19:06:14.795Z,40.60
2022-10-29T19:09:17.832Z,40.71
2022-10-29T19:12:21.123Z,40.46
2022-10-29T19:15:25.576Z,40.28
2022-10-29T19:18:28.685Z,40.66
2022-10-29T19:21:32.164Z,40.23
2022-10-29T19:24:35.165Z,40.66
2022-10-29T19:27:38.175Z,40.37
2022-10-29T19:30:42.599Z,40.57
2022-10-29T19:33:48.640Z,40.03
2022-10-29T19:36:51.729Z,39.56
2022-10-29T19:39:54.753Z,40.20
2022-10-29T19:42:57.785Z,39.89
2022-10-29T19:46:02.317Z,40.08
2022-10-29T19:49:05.666Z,40.69
2022-10-29T19:52:08.801Z,40.36
2022-10-29T19:55:11.791Z,40.18
2022-10-29T19:58:14.806Z,39.99
2022-10-29T20:01:19.898Z,39.83
2022-10-29T20:04:23.046Z,40.18
2022-10-29T20:07:26.183Z,40.43
2022-10-29T20:10:29.273Z,40.05
2022-10-29T20:13:32.568Z,39.90
2022-10-29T20:16:37.024Z,40.02
2022-10-29T20:19:39.988Z,40.24
2022-10-29T20:22:43.017Z,39.95
2022-10-29T20:25:46.055Z,39.88
2022-10-29T20:28:49.157Z,40.09
2022-10-29T20:31:53.563Z,39.75
2022-10-29T20:34:56.539Z,39.69
2022-10-29T20:37:59.824Z,39.66
2022-10-29T20:41:03.254Z,39.60
2022-10-29T20:44:06.562Z,39.33
2022-10-29T20:47:11.031Z,39.61
2022-10-29T20:50:14.113Z,39.38
2022-10-29T20:53:17.145Z,39.00
2022-10-29T20:56:20.652Z,39.22
2022-10-29T20:59:23.876Z,39.25
2022-10-29T21:02:28.396Z,39.36
2022-10-29T21:05:31.489Z,39.07
2022-10-29T21:08:35.461Z,39.09
2022-10-29T21:11:38.464Z,38.81
2022-10-29T21:14:41.517Z,39.25
2022-10-29T21:17:45.960Z,38.73
2022-10-29T21:20:48.992Z,39.18
2022-10-29T21:23:52.165Z,39.28
2022-10-29T21:26:55.253Z,38.90
2022-10-29T21:29:58.516Z,38.80
2022-10-29T21:33:02.934Z,39.36
2022-10-29T21:36:06.921Z,38.87
2022-10-29T21:39:09.934Z,38.60
2022-10-29T21:42:12.982Z,38.79
2022-10-29T21:45:16.048Z,38.47
2022-10-29T21:48:20.797Z,38.72
2022-10-29T21:51:23.859Z,38.68
2022-10-29T21:54:28.384Z,38.82
2022-10-29T21:57:31.589Z,38.76
2022-10-29T22:00:35.053Z,39.04
2022-10-29T22:03:41.876Z,38.63
2022-10-29T22:06:44.841Z,38.71
2022-10-29T22:09:47.856Z,38.68
2022-10-29T22:12:50.922Z,38.72
2022-10-29T22:15:54.018Z,38.79
2022-10-29T22:18:58.474Z,39.23
2022-10-29T22:22:01.475Z,38.64
2022-10-29T22:25:04.601Z,38.51
2022-10-29T22:28:07.659Z,39.04
2022-10-29T22:31:11.069Z,38.57
2022-10-29T22:34:15.568Z,38.60
2022-10-29T22:37:18.634Z,38.70
2022-10-29T22:40:21.615Z,38.89
2022-10-29T22:43:24.657Z,38.58
2022-10-29T22:46:30.444Z,38.50
2022-10-29T22:49:34.867Z,38.50
2022-10-29T22:52:37.906Z,38.47
2022-10-29T22:55:40.991Z,38.43
2022-10-29T22:58:44.044Z,38.12
2022-10-29T23:01:47.157Z,38.54
2022-10-29T23:04:51.640Z,38.34
2022-10-29T23:07:54.898Z,38.15
2022-10-29T23:10:58.547Z,38.16
2022-10-29T23:14:02.753Z,37.88
2022-10-29T23:17:05.735Z,38.01
2022-10-29T23:20:10.728Z,38.09
2022-10-29T23:23:14.460Z,38.19
2022-10-29T23:26:17.735Z,38.21
2022-10-29T23:29:20.710Z,38.31
2022-10-29T23:32:23.742Z,38.34
2022-10-29T23:35:28.178Z,38.68
2022-10-29T23:38:31.394Z,38.84
2022-10-29T23:41:34.412Z,38.90
2022-10-29T23:44:37.414Z,38.31
2022-10-29T23:47:40.651Z,38.55
2022-10-29T23:50:45.265Z,38.82
2022-10-29T23:53:50.436Z,38.63
2022-10-29T23:56:56.319Z,39.03
2022-10-29T23:59:59.350Z,38.99
